sensor_id;sensor_type;location;lat;lon;timestamp;P1;durP1;ratioP1;P2;durP2;ratioP2
16667;SDS011;8447;52.630;4.734;2022-12-15T00:02:38;6.90;;;3.97;;
16667;SDS011;8447;52.630;4.734;2022-12-15T00:05:22;6.33;;;4.03;;
16667;SDS011;8447;52.630;4.734;2022-12-15T00:08:08;4.87;;;3.43;;
16667;SDS011;8447;52.630;4.734;2022-12-15T00:10:53;7.67;;;4.57;;
16667;SDS011;8447;52.630;4.734;2022-12-15T00:13:37;5.57;;;3.87;;
16667;SDS011;8447;52.630;4.734;2022-12-15T00:16:21;5.20;;;4.37;;
16667;SDS011;8447;52.630;4.734;2022-12-15T00:19:04;5.57;;;3.30;;
16667;SDS011;8447;52.630;4.734;2022-12-15T00:21:48;4.53;;;2.87;;
16667;SDS011;8447;52.630;4.734;2022-12-15T00:24:34;4.00;;;3.43;;
16667;SDS011;8447;52.630;4.734;2022-12-15T00:27:17;5.93;;;3.80;;
16667;SDS011;8447;52.630;4.734;2022-12-15T00:30:01;4.60;;;3.53;;
16667;SDS011;8447;52.630;4.734;2022-12-15T00:32:45;5.30;;;4.13;;
16667;SDS011;8447;52.630;4.734;2022-12-15T00:35:29;5.10;;;3.27;;
16667;SDS011;8447;52.630;4.734;2022-12-15T00:38:13;5.67;;;4.03;;
16667;SDS011;8447;52.630;4.734;2022-12-15T00:40:59;7.83;;;3.77;;
16667;SDS011;8447;52.630;4.734;2022-12-15T00:43:25;5.03;;;3.67;;
16667;SDS011;8447;52.630;4.734;2022-12-15T00:45:52;4.83;;;4.10;;
16667;SDS011;8447;52.630;4.734;2022-12-15T00:48:35;5.77;;;3.67;;
16667;SDS011;8447;52.630;4.734;2022-12-15T00:51:02;5.10;;;4.00;;
16667;SDS011;8447;52.630;4.734;2022-12-15T00:53:27;6.50;;;3.43;;
16667;SDS011;8447;52.630;4.734;2022-12-15T00:56:12;6.20;;;3.30;;
16667;SDS011;8447;52.630;4.734;2022-12-15T00:58:56;5.57;;;3.43;;
16667;SDS011;8447;52.630;4.734;2022-12-15T01:01:40;4.73;;;2.50;;
16667;SDS011;8447;52.630;4.734;2022-12-15T01:04:24;6.13;;;3.77;;
16667;SDS011;8447;52.630;4.734;2022-12-15T01:07:08;6.03;;;2.93;;
16667;SDS011;8447;52.630;4.734;2022-12-15T01:09:52;4.23;;;3.00;;
16667;SDS011;8447;52.630;4.734;2022-12-15T01:12:37;5.23;;;3.20;;
16667;SDS011;8447;52.630;4.734;2022-12-15T01:15:21;4.60;;;3.17;;
16667;SDS011;8447;52.630;4.734;2022-12-15T01:18:04;7.30;;;3.37;;
16667;SDS011;8447;52.630;4.734;2022-12-15T01:20:53;3.57;;;2.87;;
16667;SDS011;8447;52.630;4.734;2022-12-15T01:23:19;6.70;;;3.27;;
16667;SDS011;8447;52.630;4.734;2022-12-15T01:25:46;6.87;;;3.10;;
16667;SDS011;8447;52.630;4.734;2022-12-15T01:28:13;4.53;;;3.30;;
16667;SDS011;8447;52.630;4.734;2022-12-15T01:30:40;6.97;;;3.80;;
16667;SDS011;8447;52.630;4.734;2022-12-15T01:33:06;4.60;;;3.20;;
16667;SDS011;8447;52.630;4.734;2022-12-15T01:35:33;7.40;;;3.07;;
16667;SDS011;8447;52.630;4.734;2022-12-15T01:37:59;6.43;;;2.80;;
16667;SDS011;8447;52.630;4.734;2022-12-15T01:40:26;4.13;;;2.83;;
16667;SDS011;8447;52.630;4.734;2022-12-15T01:43:11;5.33;;;2.80;;
16667;SDS011;8447;52.630;4.734;2022-12-15T01:45:50;5.97;;;2.70;;
16667;SDS011;8447;52.630;4.734;2022-12-15T01:48:18;3.67;;;2.70;;
16667;SDS011;8447;52.630;4.734;2022-12-15T01:50:49;4.40;;;2.80;;
16667;SDS011;8447;52.630;4.734;2022-12-15T01:53:18;4.33;;;3.50;;
16667;SDS011;8447;52.630;4.734;2022-12-15T01:55:44;5.13;;;2.67;;
16667;SDS011;8447;52.630;4.734;2022-12-15T01:58:11;3.80;;;2.43;;
16667;SDS011;8447;52.630;4.734;2022-12-15T02:00:39;5.57;;;3.00;;
16667;SDS011;8447;52.630;4.734;2022-12-15T02:03:07;5.13;;;2.40;;
16667;SDS011;8447;52.630;4.734;2022-12-15T02:05:34;4.73;;;2.73;;
16667;SDS011;8447;52.630;4.734;2022-12-15T02:08:01;5.53;;;2.43;;
16667;SDS011;8447;52.630;4.734;2022-12-15T02:10:33;3.57;;;2.10;;
16667;SDS011;8447;52.630;4.734;2022-12-15T02:13:05;4.60;;;2.60;;
16667;SDS011;8447;52.630;4.734;2022-12-15T02:15:36;3.77;;;2.27;;
16667;SDS011;8447;52.630;4.734;2022-12-15T02:18:04;5.70;;;2.43;;
16667;SDS011;8447;52.630;4.734;2022-12-15T02:20:38;3.57;;;2.60;;
16667;SDS011;8447;52.630;4.734;2022-12-15T02:25:53;4.40;;;2.27;;
16667;SDS011;8447;52.630;4.734;2022-12-15T02:28:28;4.57;;;2.37;;
16667;SDS011;8447;52.630;4.734;2022-12-15T02:30:57;4.50;;;2.43;;
16667;SDS011;8447;52.630;4.734;2022-12-15T02:33:44;6.37;;;2.73;;
16667;SDS011;8447;52.630;4.734;2022-12-15T02:36:14;6.17;;;2.80;;
16667;SDS011;8447;52.630;4.734;2022-12-15T02:38:41;5.87;;;2.47;;
16667;SDS011;8447;52.630;4.734;2022-12-15T02:43:50;5.47;;;2.47;;
16667;SDS011;8447;52.630;4.734;2022-12-15T02:46:18;7.03;;;2.13;;
16667;SDS011;8447;52.630;4.734;2022-12-15T02:48:51;2.93;;;2.07;;
16667;SDS011;8447;52.630;4.734;2022-12-15T02:51:23;3.77;;;2.13;;
16667;SDS011;8447;52.630;4.734;2022-12-15T02:54:10;3.83;;;2.33;;
16667;SDS011;8447;52.630;4.734;2022-12-15T02:56:42;3.10;;;2.20;;
16667;SDS011;8447;52.630;4.734;2022-12-15T02:59:10;4.83;;;1.97;;
16667;SDS011;8447;52.630;4.734;2022-12-15T03:01:40;3.27;;;2.30;;
16667;SDS011;8447;52.630;4.734;2022-12-15T03:04:09;4.87;;;1.90;;
16667;SDS011;8447;52.630;4.734;2022-12-15T03:06:35;3.63;;;1.87;;
16667;SDS011;8447;52.630;4.734;2022-12-15T03:09:02;5.47;;;1.67;;
16667;SDS011;8447;52.630;4.734;2022-12-15T03:11:28;4.43;;;1.97;;
16667;SDS011;8447;52.630;4.734;2022-12-15T03:13:55;3.20;;;1.77;;
16667;SDS011;8447;52.630;4.734;2022-12-15T03:16:21;7.47;;;1.90;;
16667;SDS011;8447;52.630;4.734;2022-12-15T03:18:50;2.40;;;1.67;;
16667;SDS011;8447;52.630;4.734;2022-12-15T03:21:16;3.20;;;1.90;;
16667;SDS011;8447;52.630;4.734;2022-12-15T03:23:43;3.63;;;1.60;;
16667;SDS011;8447;52.630;4.734;2022-12-15T03:26:09;3.23;;;2.10;;
16667;SDS011;8447;52.630;4.734;2022-12-15T03:28:36;4.57;;;2.30;;
16667;SDS011;8447;52.630;4.734;2022-12-15T03:31:02;2.07;;;1.70;;
16667;SDS011;8447;52.630;4.734;2022-12-15T03:33:29;2.90;;;2.10;;
16667;SDS011;8447;52.630;4.734;2022-12-15T03:35:58;2.73;;;1.67;;
16667;SDS011;8447;52.630;4.734;2022-12-15T03:38:24;3.40;;;1.60;;
16667;SDS011;8447;52.630;4.734;2022-12-15T03:40:51;2.83;;;1.60;;
16667;SDS011;8447;52.630;4.734;2022-12-15T03:43:17;5.03;;;1.97;;
16667;SDS011;8447;52.630;4.734;2022-12-15T03:45:44;5.00;;;1.50;;
16667;SDS011;8447;52.630;4.734;2022-12-15T03:48:10;2.73;;;1.50;;
16667;SDS011;8447;52.630;4.734;2022-12-15T03:50:36;4.90;;;1.50;;
16667;SDS011;8447;52.630;4.734;2022-12-15T03:53:04;1.93;;;1.57;;
16667;SDS011;8447;52.630;4.734;2022-12-15T03:55:30;3.00;;;1.57;;
16667;SDS011;8447;52.630;4.734;2022-12-15T03:57:57;4.83;;;1.57;;
16667;SDS011;8447;52.630;4.734;2022-12-15T04:00:23;3.10;;;2.07;;
16667;SDS011;8447;52.630;4.734;2022-12-15T04:02:50;3.97;;;1.67;;
16667;SDS011;8447;52.630;4.734;2022-12-15T04:05:17;5.10;;;2.00;;
16667;SDS011;8447;52.630;4.734;2022-12-15T04:07:44;3.33;;;1.70;;
16667;SDS011;8447;52.630;4.734;2022-12-15T04:10:12;3.00;;;1.37;;
16667;SDS011;8447;52.630;4.734;2022-12-15T04:12:38;3.67;;;1.70;;
16667;SDS011;8447;52.630;4.734;2022-12-15T04:15:05;2.73;;;1.40;;
16667;SDS011;8447;52.630;4.734;2022-12-15T04:17:32;2.50;;;1.10;;
16667;SDS011;8447;52.630;4.734;2022-12-15T04:19:58;5.90;;;1.40;;
16667;SDS011;8447;52.630;4.734;2022-12-15T04:22:33;3.30;;;1.20;;
16667;SDS011;8447;52.630;4.734;2022-12-15T04:24:59;3.20;;;1.10;;
16667;SDS011;8447;52.630;4.734;2022-12-15T04:27:44;1.37;;;0.93;;
16667;SDS011;8447;52.630;4.734;2022-12-15T04:30:28;2.90;;;0.97;;
16667;SDS011;8447;52.630;4.734;2022-12-15T04:33:12;1.67;;;0.97;;
16667;SDS011;8447;52.630;4.734;2022-12-15T04:35:56;2.93;;;1.40;;
16667;SDS011;8447;52.630;4.734;2022-12-15T04:38:40;2.20;;;1.10;;
16667;SDS011;8447;52.630;4.734;2022-12-15T04:41:24;2.03;;;1.20;;
16667;SDS011;8447;52.630;4.734;2022-12-15T04:44:09;3.07;;;1.13;;
16667;SDS011;8447;52.630;4.734;2022-12-15T04:46:53;2.80;;;1.20;;
16667;SDS011;8447;52.630;4.734;2022-12-15T04:49:37;1.43;;;1.23;;
16667;SDS011;8447;52.630;4.734;2022-12-15T04:52:21;2.23;;;1.30;;
16667;SDS011;8447;52.630;4.734;2022-12-15T04:55:05;4.00;;;1.30;;
16667;SDS011;8447;52.630;4.734;2022-12-15T04:57:49;2.10;;;1.10;;
16667;SDS011;8447;52.630;4.734;2022-12-15T05:00:35;6.17;;;1.10;;
16667;SDS011;8447;52.630;4.734;2022-12-15T05:03:19;1.33;;;1.23;;
16667;SDS011;8447;52.630;4.734;2022-12-15T05:06:03;2.87;;;1.33;;
16667;SDS011;8447;52.630;4.734;2022-12-15T05:08:47;2.67;;;1.10;;
16667;SDS011;8447;52.630;4.734;2022-12-15T05:11:31;4.10;;;1.10;;
16667;SDS011;8447;52.630;4.734;2022-12-15T05:14:15;2.20;;;1.13;;
16667;SDS011;8447;52.630;4.734;2022-12-15T05:17:00;3.10;;;1.20;;
16667;SDS011;8447;52.630;4.734;2022-12-15T05:19:44;2.80;;;1.30;;
16667;SDS011;8447;52.630;4.734;2022-12-15T05:22:28;1.57;;;1.20;;
16667;SDS011;8447;52.630;4.734;2022-12-15T05:25:12;5.67;;;1.63;;
16667;SDS011;8447;52.630;4.734;2022-12-15T05:27:56;4.57;;;1.10;;
16667;SDS011;8447;52.630;4.734;2022-12-15T05:30:40;2.63;;;1.00;;
16667;SDS011;8447;52.630;4.734;2022-12-15T05:33:25;2.37;;;1.27;;
16667;SDS011;8447;52.630;4.734;2022-12-15T05:35:53;2.87;;;1.20;;
16667;SDS011;8447;52.630;4.734;2022-12-15T05:38:20;1.47;;;1.23;;
16667;SDS011;8447;52.630;4.734;2022-12-15T05:40:47;2.87;;;1.50;;
16667;SDS011;8447;52.630;4.734;2022-12-15T05:43:13;2.13;;;1.20;;
16667;SDS011;8447;52.630;4.734;2022-12-15T05:45:39;4.17;;;1.83;;
16667;SDS011;8447;52.630;4.734;2022-12-15T05:48:06;2.63;;;1.30;;
16667;SDS011;8447;52.630;4.734;2022-12-15T05:50:33;8.17;;;1.70;;
16667;SDS011;8447;52.630;4.734;2022-12-15T05:53:00;3.47;;;1.27;;
16667;SDS011;8447;52.630;4.734;2022-12-15T05:55:26;1.47;;;1.13;;
16667;SDS011;8447;52.630;4.734;2022-12-15T05:57:52;2.90;;;1.43;;
16667;SDS011;8447;52.630;4.734;2022-12-15T06:00:19;2.13;;;1.20;;
16667;SDS011;8447;52.630;4.734;2022-12-15T06:02:45;5.67;;;1.60;;
16667;SDS011;8447;52.630;4.734;2022-12-15T06:05:12;5.10;;;1.40;;
16667;SDS011;8447;52.630;4.734;2022-12-15T06:07:39;2.73;;;1.50;;
16667;SDS011;8447;52.630;4.734;2022-12-15T06:10:06;4.23;;;1.00;;
16667;SDS011;8447;52.630;4.734;2022-12-15T06:12:33;3.10;;;1.23;;
16667;SDS011;8447;52.630;4.734;2022-12-15T06:14:59;2.00;;;0.90;;
16667;SDS011;8447;52.630;4.734;2022-12-15T06:17:25;1.73;;;1.10;;
16667;SDS011;8447;52.630;4.734;2022-12-15T06:19:52;2.60;;;0.83;;
16667;SDS011;8447;52.630;4.734;2022-12-15T06:22:18;3.03;;;0.90;;
16667;SDS011;8447;52.630;4.734;2022-12-15T06:24:46;2.70;;;0.93;;
16667;SDS011;8447;52.630;4.734;2022-12-15T06:27:12;1.03;;;0.60;;
16667;SDS011;8447;52.630;4.734;2022-12-15T06:29:38;3.13;;;0.90;;
16667;SDS011;8447;52.630;4.734;2022-12-15T06:32:05;0.97;;;0.60;;
16667;SDS011;8447;52.630;4.734;2022-12-15T06:34:31;1.10;;;0.43;;
16667;SDS011;8447;52.630;4.734;2022-12-15T06:36:57;1.27;;;0.80;;
16667;SDS011;8447;52.630;4.734;2022-12-15T06:39:24;3.17;;;0.80;;
16667;SDS011;8447;52.630;4.734;2022-12-15T06:41:51;3.20;;;0.77;;
16667;SDS011;8447;52.630;4.734;2022-12-15T06:44:18;1.53;;;0.83;;
16667;SDS011;8447;52.630;4.734;2022-12-15T06:46:44;3.00;;;0.50;;
16667;SDS011;8447;52.630;4.734;2022-12-15T06:49:10;3.93;;;0.87;;
16667;SDS011;8447;52.630;4.734;2022-12-15T06:51:37;2.57;;;0.83;;
16667;SDS011;8447;52.630;4.734;2022-12-15T06:54:03;2.40;;;0.70;;
16667;SDS011;8447;52.630;4.734;2022-12-15T06:56:31;2.63;;;0.77;;
16667;SDS011;8447;52.630;4.734;2022-12-15T06:58:59;1.80;;;0.50;;
16667;SDS011;8447;52.630;4.734;2022-12-15T07:01:26;1.37;;;0.77;;
16667;SDS011;8447;52.630;4.734;2022-12-15T07:03:52;2.17;;;0.60;;
16667;SDS011;8447;52.630;4.734;2022-12-15T07:06:19;3.90;;;1.10;;
16667;SDS011;8447;52.630;4.734;2022-12-15T07:08:47;1.90;;;0.83;;
16667;SDS011;8447;52.630;4.734;2022-12-15T07:11:16;3.17;;;0.63;;
16667;SDS011;8447;52.630;4.734;2022-12-15T07:13:42;1.03;;;0.70;;
16667;SDS011;8447;52.630;4.734;2022-12-15T07:16:10;1.23;;;0.60;;
16667;SDS011;8447;52.630;4.734;2022-12-15T07:18:36;0.50;;;0.50;;
16667;SDS011;8447;52.630;4.734;2022-12-15T07:21:05;1.73;;;0.97;;
16667;SDS011;8447;52.630;4.734;2022-12-15T07:23:32;1.87;;;0.67;;
16667;SDS011;8447;52.630;4.734;2022-12-15T07:26:02;2.47;;;0.70;;
16667;SDS011;8447;52.630;4.734;2022-12-15T07:28:28;2.63;;;0.73;;
16667;SDS011;8447;52.630;4.734;2022-12-15T07:30:59;3.57;;;1.10;;
16667;SDS011;8447;52.630;4.734;2022-12-15T07:33:27;1.37;;;0.70;;
16667;SDS011;8447;52.630;4.734;2022-12-15T07:35:54;3.83;;;1.07;;
16667;SDS011;8447;52.630;4.734;2022-12-15T07:38:20;0.77;;;0.57;;
16667;SDS011;8447;52.630;4.734;2022-12-15T07:40:47;3.60;;;1.13;;
16667;SDS011;8447;52.630;4.734;2022-12-15T07:43:13;2.97;;;0.90;;
16667;SDS011;8447;52.630;4.734;2022-12-15T07:45:40;4.93;;;1.17;;
16667;SDS011;8447;52.630;4.734;2022-12-15T07:48:07;2.07;;;0.90;;
16667;SDS011;8447;52.630;4.734;2022-12-15T07:50:36;2.10;;;0.90;;
16667;SDS011;8447;52.630;4.734;2022-12-15T07:53:03;6.10;;;1.40;;
16667;SDS011;8447;52.630;4.734;2022-12-15T07:55:30;3.17;;;0.83;;
16667;SDS011;8447;52.630;4.734;2022-12-15T07:57:56;2.33;;;0.80;;
16667;SDS011;8447;52.630;4.734;2022-12-15T08:00:23;3.80;;;1.23;;
16667;SDS011;8447;52.630;4.734;2022-12-15T08:02:49;3.23;;;0.73;;
16667;SDS011;8447;52.630;4.734;2022-12-15T08:05:15;4.73;;;1.00;;
16667;SDS011;8447;52.630;4.734;2022-12-15T08:07:43;4.67;;;1.00;;
16667;SDS011;8447;52.630;4.734;2022-12-15T08:10:09;6.20;;;1.30;;
16667;SDS011;8447;52.630;4.734;2022-12-15T08:12:36;4.43;;;1.77;;
16667;SDS011;8447;52.630;4.734;2022-12-15T08:15:02;5.17;;;1.97;;
16667;SDS011;8447;52.630;4.734;2022-12-15T08:17:29;5.03;;;2.20;;
16667;SDS011;8447;52.630;4.734;2022-12-15T08:19:55;7.50;;;2.03;;
16667;SDS011;8447;52.630;4.734;2022-12-15T08:22:22;8.77;;;2.90;;
16667;SDS011;8447;52.630;4.734;2022-12-15T08:24:50;6.87;;;2.27;;
16667;SDS011;8447;52.630;4.734;2022-12-15T08:27:16;8.03;;;2.27;;
16667;SDS011;8447;52.630;4.734;2022-12-15T08:29:42;8.30;;;2.03;;
16667;SDS011;8447;52.630;4.734;2022-12-15T08:32:09;8.70;;;2.10;;
16667;SDS011;8447;52.630;4.734;2022-12-15T08:34:35;5.40;;;1.83;;
16667;SDS011;8447;52.630;4.734;2022-12-15T08:37:03;7.80;;;2.63;;
16667;SDS011;8447;52.630;4.734;2022-12-15T08:39:29;10.13;;;2.43;;
16667;SDS011;8447;52.630;4.734;2022-12-15T08:41:57;5.33;;;1.80;;
16667;SDS011;8447;52.630;4.734;2022-12-15T08:44:23;6.50;;;1.90;;
16667;SDS011;8447;52.630;4.734;2022-12-15T08:46:49;4.80;;;1.47;;
16667;SDS011;8447;52.630;4.734;2022-12-15T08:49:16;7.40;;;1.77;;
16667;SDS011;8447;52.630;4.734;2022-12-15T08:51:42;8.47;;;1.70;;
16667;SDS011;8447;52.630;4.734;2022-12-15T08:54:09;6.07;;;1.97;;
16667;SDS011;8447;52.630;4.734;2022-12-15T08:56:35;5.93;;;1.83;;
16667;SDS011;8447;52.630;4.734;2022-12-15T08:59:03;4.23;;;1.43;;
16667;SDS011;8447;52.630;4.734;2022-12-15T09:01:30;3.90;;;1.00;;
16667;SDS011;8447;52.630;4.734;2022-12-15T09:03:56;4.90;;;1.60;;
16667;SDS011;8447;52.630;4.734;2022-12-15T09:06:24;4.50;;;1.47;;
16667;SDS011;8447;52.630;4.734;2022-12-15T09:08:52;3.60;;;1.23;;
16667;SDS011;8447;52.630;4.734;2022-12-15T09:11:18;6.27;;;2.00;;
16667;SDS011;8447;52.630;4.734;2022-12-15T09:13:45;7.03;;;2.77;;
16667;SDS011;8447;52.630;4.734;2022-12-15T09:18:41;5.93;;;1.00;;
16667;SDS011;8447;52.630;4.734;2022-12-15T09:21:08;2.67;;;1.40;;
16667;SDS011;8447;52.630;4.734;2022-12-15T09:23:36;2.93;;;1.20;;
16667;SDS011;8447;52.630;4.734;2022-12-15T09:26:03;7.23;;;1.37;;
16667;SDS011;8447;52.630;4.734;2022-12-15T09:28:29;12.40;;;1.80;;
16667;SDS011;8447;52.630;4.734;2022-12-15T09:31:00;4.27;;;1.73;;
16667;SDS011;8447;52.630;4.734;2022-12-15T09:33:27;6.53;;;1.00;;
16667;SDS011;8447;52.630;4.734;2022-12-15T09:35:54;3.30;;;0.83;;
16667;SDS011;8447;52.630;4.734;2022-12-15T09:38:21;3.90;;;1.43;;
16667;SDS011;8447;52.630;4.734;2022-12-15T09:40:47;10.57;;;1.50;;
16667;SDS011;8447;52.630;4.734;2022-12-15T09:43:14;3.20;;;1.07;;
16667;SDS011;8447;52.630;4.734;2022-12-15T09:45:43;5.33;;;1.20;;
16667;SDS011;8447;52.630;4.734;2022-12-15T09:48:11;4.17;;;1.30;;
16667;SDS011;8447;52.630;4.734;2022-12-15T09:50:39;5.73;;;1.57;;
16667;SDS011;8447;52.630;4.734;2022-12-15T09:53:08;7.13;;;1.33;;
16667;SDS011;8447;52.630;4.734;2022-12-15T09:55:36;5.67;;;1.17;;
16667;SDS011;8447;52.630;4.734;2022-12-15T09:58:04;5.00;;;1.10;;
16667;SDS011;8447;52.630;4.734;2022-12-15T10:00:32;5.57;;;1.63;;
16667;SDS011;8447;52.630;4.734;2022-12-15T10:03:22;5.87;;;1.10;;
16667;SDS011;8447;52.630;4.734;2022-12-15T10:05:56;4.73;;;1.00;;
16667;SDS011;8447;52.630;4.734;2022-12-15T10:08:28;5.57;;;1.70;;
16667;SDS011;8447;52.630;4.734;2022-12-15T10:10:56;1.90;;;0.90;;
16667;SDS011;8447;52.630;4.734;2022-12-15T10:13:25;7.40;;;1.17;;
16667;SDS011;8447;52.630;4.734;2022-12-15T10:15:54;5.47;;;1.23;;
16667;SDS011;8447;52.630;4.734;2022-12-15T10:18:24;6.93;;;1.23;;
16667;SDS011;8447;52.630;4.734;2022-12-15T10:20:52;5.43;;;0.80;;
16667;SDS011;8447;52.630;4.734;2022-12-15T10:23:19;3.83;;;1.10;;
16667;SDS011;8447;52.630;4.734;2022-12-15T10:25:47;4.13;;;1.07;;
16667;SDS011;8447;52.630;4.734;2022-12-15T10:28:23;7.70;;;0.67;;
16667;SDS011;8447;52.630;4.734;2022-12-15T10:30:54;4.43;;;1.63;;
16667;SDS011;8447;52.630;4.734;2022-12-15T10:33:23;4.40;;;1.37;;
16667;SDS011;8447;52.630;4.734;2022-12-15T10:35:50;3.90;;;0.80;;
16667;SDS011;8447;52.630;4.734;2022-12-15T10:38:21;2.30;;;0.80;;
16667;SDS011;8447;52.630;4.734;2022-12-15T10:40:51;6.60;;;1.20;;
16667;SDS011;8447;52.630;4.734;2022-12-15T10:43:23;4.43;;;0.80;;
16667;SDS011;8447;52.630;4.734;2022-12-15T10:45:55;2.73;;;0.80;;
16667;SDS011;8447;52.630;4.734;2022-12-15T10:48:24;2.70;;;0.80;;
16667;SDS011;8447;52.630;4.734;2022-12-15T10:50:50;2.83;;;0.73;;
16667;SDS011;8447;52.630;4.734;2022-12-15T10:53:32;6.03;;;0.90;;
16667;SDS011;8447;52.630;4.734;2022-12-15T10:56:04;4.60;;;0.80;;
16667;SDS011;8447;52.630;4.734;2022-12-15T10:58:31;5.07;;;1.03;;
16667;SDS011;8447;52.630;4.734;2022-12-15T11:01:03;3.70;;;1.53;;
16667;SDS011;8447;52.630;4.734;2022-12-15T11:03:32;4.53;;;1.00;;
16667;SDS011;8447;52.630;4.734;2022-12-15T11:06:01;3.30;;;0.70;;
16667;SDS011;8447;52.630;4.734;2022-12-15T11:08:33;5.07;;;1.10;;
16667;SDS011;8447;52.630;4.734;2022-12-15T11:11:00;7.50;;;1.20;;
16667;SDS011;8447;52.630;4.734;2022-12-15T11:14:02;2.47;;;0.70;;
16667;SDS011;8447;52.630;4.734;2022-12-15T11:16:28;6.50;;;0.83;;
16667;SDS011;8447;52.630;4.734;2022-12-15T11:18:57;2.07;;;0.80;;
16667;SDS011;8447;52.630;4.734;2022-12-15T11:21:28;3.63;;;1.43;;
16667;SDS011;8447;52.630;4.734;2022-12-15T11:23:57;4.00;;;0.60;;
16667;SDS011;8447;52.630;4.734;2022-12-15T11:26:26;3.27;;;0.70;;
16667;SDS011;8447;52.630;4.734;2022-12-15T11:28:59;5.23;;;1.17;;
16667;SDS011;8447;52.630;4.734;2022-12-15T11:31:29;4.53;;;1.27;;
16667;SDS011;8447;52.630;4.734;2022-12-15T11:33:57;2.10;;;0.60;;
16667;SDS011;8447;52.630;4.734;2022-12-15T11:36:28;5.77;;;1.10;;
16667;SDS011;8447;52.630;4.734;2022-12-15T11:39:00;4.20;;;0.83;;
16667;SDS011;8447;52.630;4.734;2022-12-15T11:41:31;6.40;;;0.90;;
16667;SDS011;8447;52.630;4.734;2022-12-15T11:44:09;6.70;;;0.87;;
16667;SDS011;8447;52.630;4.734;2022-12-15T11:46:41;4.40;;;0.87;;
16667;SDS011;8447;52.630;4.734;2022-12-15T11:51:56;5.13;;;0.93;;
16667;SDS011;8447;52.630;4.734;2022-12-15T11:54:26;5.23;;;0.60;;
16667;SDS011;8447;52.630;4.734;2022-12-15T11:56:55;6.23;;;0.90;;
16667;SDS011;8447;52.630;4.734;2022-12-15T11:59:34;6.97;;;1.27;;
16667;SDS011;8447;52.630;4.734;2022-12-15T12:02:21;2.97;;;0.83;;
16667;SDS011;8447;52.630;4.734;2022-12-15T12:04:53;2.83;;;0.80;;
16667;SDS011;8447;52.630;4.734;2022-12-15T12:07:23;2.00;;;0.60;;
16667;SDS011;8447;52.630;4.734;2022-12-15T12:09:58;2.87;;;0.70;;
16667;SDS011;8447;52.630;4.734;2022-12-15T12:12:28;4.10;;;0.70;;
16667;SDS011;8447;52.630;4.734;2022-12-15T12:15:00;3.63;;;0.53;;
16667;SDS011;8447;52.630;4.734;2022-12-15T12:17:35;5.10;;;0.77;;
16667;SDS011;8447;52.630;4.734;2022-12-15T12:20:10;6.37;;;0.80;;
16667;SDS011;8447;52.630;4.734;2022-12-15T12:22:39;3.20;;;0.97;;
16667;SDS011;8447;52.630;4.734;2022-12-15T12:25:08;4.73;;;0.87;;
16667;SDS011;8447;52.630;4.734;2022-12-15T12:27:38;2.50;;;0.50;;
16667;SDS011;8447;52.630;4.734;2022-12-15T12:30:10;3.47;;;1.07;;
16667;SDS011;8447;52.630;4.734;2022-12-15T12:32:38;6.10;;;0.73;;
16667;SDS011;8447;52.630;4.734;2022-12-15T12:35:07;4.37;;;1.03;;
16667;SDS011;8447;52.630;4.734;2022-12-15T12:37:36;5.53;;;0.93;;
16667;SDS011;8447;52.630;4.734;2022-12-15T12:40:06;2.90;;;0.80;;
16667;SDS011;8447;52.630;4.734;2022-12-15T12:42:36;1.87;;;0.57;;
16667;SDS011;8447;52.630;4.734;2022-12-15T12:45:09;5.90;;;0.90;;
16667;SDS011;8447;52.630;4.734;2022-12-15T12:47:39;4.87;;;0.80;;
16667;SDS011;8447;52.630;4.734;2022-12-15T12:50:11;1.90;;;0.80;;
16667;SDS011;8447;52.630;4.734;2022-12-15T12:52:41;16.70;;;1.40;;
16667;SDS011;8447;52.630;4.734;2022-12-15T12:55:20;4.03;;;0.93;;
16667;SDS011;8447;52.630;4.734;2022-12-15T12:57:50;3.77;;;0.80;;
16667;SDS011;8447;52.630;4.734;2022-12-15T13:00:18;3.50;;;0.80;;
16667;SDS011;8447;52.630;4.734;2022-12-15T13:02:53;4.20;;;0.50;;
16667;SDS011;8447;52.630;4.734;2022-12-15T13:05:22;2.73;;;0.80;;
16667;SDS011;8447;52.630;4.734;2022-12-15T13:07:52;3.73;;;0.87;;
16667;SDS011;8447;52.630;4.734;2022-12-15T13:10:19;4.77;;;1.87;;
16667;SDS011;8447;52.630;4.734;2022-12-15T13:12:46;7.90;;;0.70;;
16667;SDS011;8447;52.630;4.734;2022-12-15T13:15:13;3.57;;;0.97;;
16667;SDS011;8447;52.630;4.734;2022-12-15T13:17:47;8.07;;;0.77;;
16667;SDS011;8447;52.630;4.734;2022-12-15T13:20:17;3.00;;;1.03;;
16667;SDS011;8447;52.630;4.734;2022-12-15T13:22:45;4.07;;;0.90;;
16667;SDS011;8447;52.630;4.734;2022-12-15T13:27:57;2.15;;;0.68;;
16667;SDS011;8447;52.630;4.734;2022-12-15T13:30:24;3.13;;;0.80;;
16667;SDS011;8447;52.630;4.734;2022-12-15T13:32:50;3.33;;;0.80;;
16667;SDS011;8447;52.630;4.734;2022-12-15T13:35:23;3.30;;;1.10;;
16667;SDS011;8447;52.630;4.734;2022-12-15T13:37:51;3.53;;;1.00;;
16667;SDS011;8447;52.630;4.734;2022-12-15T13:40:25;5.60;;;1.00;;
16667;SDS011;8447;52.630;4.734;2022-12-15T13:42:57;3.40;;;1.10;;
16667;SDS011;8447;52.630;4.734;2022-12-15T13:45:30;3.10;;;0.70;;
16667;SDS011;8447;52.630;4.734;2022-12-15T13:47:58;8.80;;;1.42;;
16667;SDS011;8447;52.630;4.734;2022-12-15T13:50:30;3.07;;;0.80;;
16667;SDS011;8447;52.630;4.734;2022-12-15T13:52:57;8.53;;;1.43;;
16667;SDS011;8447;52.630;4.734;2022-12-15T13:55:27;4.83;;;0.83;;
16667;SDS011;8447;52.630;4.734;2022-12-15T13:57:58;4.50;;;0.80;;
16667;SDS011;8447;52.630;4.734;2022-12-15T14:00:25;3.63;;;1.20;;
16667;SDS011;8447;52.630;4.734;2022-12-15T14:03:01;4.13;;;1.10;;
16667;SDS011;8447;52.630;4.734;2022-12-15T14:05:31;6.10;;;1.47;;
16667;SDS011;8447;52.630;4.734;2022-12-15T14:07:58;2.30;;;1.10;;
16667;SDS011;8447;52.630;4.734;2022-12-15T14:10:28;3.70;;;0.90;;
16667;SDS011;8447;52.630;4.734;2022-12-15T14:13:00;7.57;;;0.97;;
16667;SDS011;8447;52.630;4.734;2022-12-15T14:15:28;6.20;;;1.10;;
16667;SDS011;8447;52.630;4.734;2022-12-15T14:17:55;4.37;;;0.97;;
16667;SDS011;8447;52.630;4.734;2022-12-15T14:20:24;5.50;;;1.10;;
16667;SDS011;8447;52.630;4.734;2022-12-15T14:22:52;6.30;;;1.50;;
16667;SDS011;8447;52.630;4.734;2022-12-15T14:25:21;5.50;;;1.20;;
16667;SDS011;8447;52.630;4.734;2022-12-15T14:27:48;4.87;;;0.97;;
16667;SDS011;8447;52.630;4.734;2022-12-15T14:33:17;5.43;;;0.87;;
16667;SDS011;8447;52.630;4.734;2022-12-15T14:35:44;8.37;;;1.50;;
16667;SDS011;8447;52.630;4.734;2022-12-15T14:38:13;8.30;;;1.10;;
16667;SDS011;8447;52.630;4.734;2022-12-15T14:40:41;5.23;;;0.93;;
16667;SDS011;8447;52.630;4.734;2022-12-15T14:43:10;4.57;;;0.90;;
16667;SDS011;8447;52.630;4.734;2022-12-15T14:45:38;3.67;;;1.20;;
16667;SDS011;8447;52.630;4.734;2022-12-15T14:48:05;4.27;;;1.20;;
16667;SDS011;8447;52.630;4.734;2022-12-15T14:50:32;4.70;;;0.90;;
16667;SDS011;8447;52.630;4.734;2022-12-15T14:53:04;5.30;;;1.83;;
16667;SDS011;8447;52.630;4.734;2022-12-15T14:55:33;5.20;;;1.17;;
16667;SDS011;8447;52.630;4.734;2022-12-15T14:58:00;5.73;;;1.03;;
16667;SDS011;8447;52.630;4.734;2022-12-15T15:00:28;4.70;;;0.70;;
16667;SDS011;8447;52.630;4.734;2022-12-15T15:03:14;2.83;;;0.90;;
16667;SDS011;8447;52.630;4.734;2022-12-15T15:05:43;4.03;;;1.10;;
16667;SDS011;8447;52.630;4.734;2022-12-15T15:08:12;4.97;;;1.07;;
16667;SDS011;8447;52.630;4.734;2022-12-15T15:10:41;4.27;;;0.90;;
16667;SDS011;8447;52.630;4.734;2022-12-15T15:13:13;2.83;;;0.73;;
16667;SDS011;8447;52.630;4.734;2022-12-15T15:15:42;3.57;;;0.93;;
16667;SDS011;8447;52.630;4.734;2022-12-15T15:18:17;8.23;;;0.83;;
16667;SDS011;8447;52.630;4.734;2022-12-15T15:20:49;7.00;;;1.20;;
16667;SDS011;8447;52.630;4.734;2022-12-15T15:23:17;5.37;;;1.07;;
16667;SDS011;8447;52.630;4.734;2022-12-15T15:25:49;1.50;;;0.67;;
16667;SDS011;8447;52.630;4.734;2022-12-15T15:28:20;2.63;;;0.70;;
16667;SDS011;8447;52.630;4.734;2022-12-15T15:30:50;2.70;;;0.83;;
16667;SDS011;8447;52.630;4.734;2022-12-15T15:33:17;2.27;;;1.07;;
16667;SDS011;8447;52.630;4.734;2022-12-15T15:35:45;1.07;;;0.43;;
16667;SDS011;8447;52.630;4.734;2022-12-15T15:38:17;2.67;;;0.63;;
16667;SDS011;8447;52.630;4.734;2022-12-15T15:40:50;1.17;;;0.50;;